createdAt,value
2022-10-05T00:01:23.803Z,70.78
2022-10-05T00:03:53.877Z,70.57
2022-10-05T00:06:23.449Z,70.67
2022-10-05T00:08:51.429Z,71.23
2022-10-05T00:11:19.427Z,71.13
2022-10-05T00:13:47.506Z,71.41
2022-10-05T00:16:19.527Z,71.04
2022-10-05T00:18:51.318Z,71.37
2022-10-05T00:21:26.201Z,71.14
2022-10-05T00:23:59.628Z,70.75
2022-10-05T00:26:33.218Z,70.77
2022-10-05T00:29:03.041Z,70.59
2022-10-05T00:31:33.760Z,70.53
2022-10-05T00:34:01.978Z,70.45
2022-10-05T00:36:31.381Z,70.10
2022-10-05T00:39:02.947Z,70.34
2022-10-05T00:41:43.011Z,70.34
2022-10-05T00:44:33.355Z,70.48
2022-10-05T00:47:22.529Z,70.66
2022-10-05T00:50:40.563Z,70.55
2022-10-05T00:53:25.669Z,70.39
2022-10-05T00:56:04.226Z,70.57
2022-10-05T00:58:46.237Z,71.16
2022-10-05T01:01:18.095Z,70.92
2022-10-05T01:04:01.487Z,70.92
2022-10-05T01:06:44.807Z,71.14
2022-10-05T01:09:23.752Z,70.86
2022-10-05T01:12:03.688Z,70.86
2022-10-05T01:14:44.369Z,70.66
2022-10-05T01:17:20.096Z,70.80
2022-10-05T01:20:25.546Z,71.63
2022-10-05T01:23:30.130Z,71.24
2022-10-05T01:26:19.954Z,71.20
2022-10-05T01:28:59.991Z,71.97
2022-10-05T01:31:42.575Z,71.63
2022-10-05T01:34:22.359Z,71.75
2022-10-05T01:37:01.709Z,70.99
2022-10-05T01:39:43.636Z,70.29
2022-10-05T01:42:22.598Z,70.40
2022-10-05T01:45:03.092Z,70.07
2022-10-05T01:47:43.351Z,70.06
2022-10-05T01:50:23.821Z,70.00
2022-10-05T01:53:06.495Z,70.60
2022-10-05T01:55:45.994Z,71.34
2022-10-05T01:58:44.337Z,71.80
2022-10-05T02:01:22.647Z,71.83
2022-10-05T02:03:58.373Z,71.23
2022-10-05T02:06:30.906Z,71.10
2022-10-05T02:09:09.455Z,70.96
2022-10-05T02:11:40.118Z,71.55
2022-10-05T02:14:12.672Z,71.11
2022-10-05T02:16:47.805Z,71.30
2022-10-05T02:19:21.848Z,71.39
2022-10-05T02:21:56.536Z,71.58
2022-10-05T02:24:32.407Z,71.23
2022-10-05T02:27:00.653Z,71.55
2022-10-05T02:29:33.823Z,71.08
2022-10-05T02:32:08.288Z,70.85
2022-10-05T02:34:39.763Z,69.95
2022-10-05T02:37:27.314Z,70.37
2022-10-05T02:40:13.121Z,70.39
2022-10-05T02:42:53.201Z,70.76
2022-10-05T02:45:31.669Z,70.29
2022-10-05T02:48:11.937Z,70.30
2022-10-05T02:50:51.145Z,70.82
2022-10-05T02:53:29.297Z,69.24
2022-10-05T02:56:11.495Z,69.96
2022-10-05T02:58:49.457Z,70.39
2022-10-05T03:01:26.401Z,70.37
2022-10-05T03:04:12.783Z,69.73
2022-10-05T03:06:51.369Z,69.77
2022-10-05T03:09:23.923Z,69.85
2022-10-05T03:12:09.287Z,69.64
2022-10-05T03:14:48.383Z,70.18
2022-10-05T03:17:21.646Z,69.80
2022-10-05T03:20:15.947Z,70.20
2022-10-05T03:22:51.920Z,71.47
2022-10-05T03:26:03.893Z,70.63
2022-10-05T03:28:41.202Z,70.28
2022-10-05T03:31:23.283Z,70.28
2022-10-05T03:33:58.127Z,69.60
2022-10-05T03:36:37.024Z,69.00
2022-10-05T03:39:16.009Z,69.28
2022-10-05T03:41:51.430Z,69.61
2022-10-05T03:44:36.186Z,69.89
2022-10-05T03:47:15.680Z,69.01
2022-10-05T03:49:58.303Z,69.41
2022-10-05T03:52:36.793Z,68.85
2022-10-05T03:55:16.391Z,69.70
2022-10-05T03:57:45.675Z,69.36
2022-10-05T04:00:18.786Z,70.18
2022-10-05T04:03:01.749Z,70.03
2022-10-05T04:05:34.608Z,70.56
2022-10-05T04:08:11.105Z,70.31
2022-10-05T04:10:46.439Z,70.15
2022-10-05T04:13:21.617Z,70.25
2022-10-05T04:15:58.713Z,70.47
2022-10-05T04:18:33.206Z,70.17
2022-10-05T04:21:07.858Z,70.23
2022-10-05T04:23:47.217Z,70.29
2022-10-05T04:26:20.988Z,70.94
2022-10-05T04:28:58.110Z,70.70
2022-10-05T04:31:50.936Z,70.90
2022-10-05T04:34:43.648Z,70.74
2022-10-05T04:37:19.290Z,71.37
2022-10-05T04:40:00.755Z,70.96
2022-10-05T04:42:36.946Z,70.96
2022-10-05T04:45:27.081Z,71.15
2022-10-05T04:48:29.467Z,70.92
2022-10-05T04:51:16.565Z,70.68
2022-10-05T04:53:55.070Z,70.84
2022-10-05T04:56:35.050Z,70.57
2022-10-05T04:59:32.376Z,70.84
2022-10-05T05:02:14.145Z,70.49
2022-10-05T05:05:15.921Z,70.66
2022-10-05T05:07:55.007Z,70.40
2022-10-05T05:10:53.593Z,70.45
2022-10-05T05:14:16.906Z,70.18
2022-10-05T05:16:51.084Z,70.26
2022-10-05T05:19:46.256Z,69.53
2022-10-05T05:22:26.727Z,69.23
2022-10-05T05:25:23.014Z,69.24
2022-10-05T05:27:56.473Z,69.18
2022-10-05T05:30:39.991Z,69.35
2022-10-05T05:33:20.609Z,69.34
2022-10-05T05:36:23.568Z,69.46
2022-10-05T05:39:12.292Z,69.80
2022-10-05T05:41:50.409Z,70.72
2022-10-05T05:44:24.762Z,70.20
2022-10-05T05:47:04.303Z,69.59
2022-10-05T05:49:54.175Z,68.82
2022-10-05T05:52:29.577Z,69.61
2022-10-05T05:55:03.311Z,69.61
2022-10-05T05:57:40.156Z,69.28
2022-10-05T06:00:21.171Z,69.37
2022-10-05T06:03:03.479Z,70.14
2022-10-05T06:05:36.539Z,70.58
2022-10-05T06:08:18.695Z,70.00
2022-10-05T06:10:56.270Z,71.04
2022-10-05T06:13:31.078Z,70.86
2022-10-05T06:16:09.336Z,70.07
2022-10-05T06:18:44.243Z,71.55
2022-10-05T06:21:21.690Z,70.89
2022-10-05T06:23:58.418Z,71.81
2022-10-05T06:27:07.990Z,71.93
2022-10-05T06:29:54.793Z,72.20
2022-10-05T06:32:30.063Z,72.29
2022-10-05T06:35:13.161Z,71.87
2022-10-05T06:38:09.404Z,72.38
2022-10-05T06:41:00.240Z,71.93
2022-10-05T06:43:48.397Z,72.36
2022-10-05T06:46:56.759Z,72.26
2022-10-05T06:49:46.623Z,72.19
2022-10-05T06:52:45.867Z,72.53
2022-10-05T06:55:24.838Z,72.88
2022-10-05T06:58:22.023Z,72.27
2022-10-05T07:00:55.027Z,72.40
2022-10-05T07:03:35.383Z,72.80
2022-10-05T07:06:12.747Z,73.12
2022-10-05T07:09:05.145Z,72.96
2022-10-05T07:12:03.683Z,72.80
2022-10-05T07:14:57.305Z,73.24
2022-10-05T07:17:42.497Z,72.65
2022-10-05T07:20:23.535Z,72.54
2022-10-05T07:23:14.497Z,72.90
2022-10-05T07:25:52.305Z,73.06
2022-10-05T07:28:32.331Z,73.00
2022-10-05T07:31:08.488Z,72.66
2022-10-05T07:33:46.887Z,72.69
2022-10-05T07:36:54.587Z,72.26
2022-10-05T07:39:58.627Z,72.34
2022-10-05T07:42:46.058Z,72.50
2022-10-05T07:45:29.131Z,73.06
2022-10-05T07:48:02.010Z,73.19
2022-10-05T07:50:39.702Z,72.92
2022-10-05T07:53:19.562Z,72.77
2022-10-05T07:55:53.337Z,72.43
2022-10-05T07:58:29.842Z,72.23
2022-10-05T08:01:09.141Z,71.79
2022-10-05T08:03:50.029Z,71.60
2022-10-05T08:06:44.254Z,71.11
2022-10-05T08:09:34.534Z,71.91
2022-10-05T08:12:23.933Z,71.46
2022-10-05T08:14:59.105Z,71.69
2022-10-05T08:17:45.159Z,70.73
2022-10-05T08:20:41.595Z,71.31
2022-10-05T08:23:21.998Z,71.43
2022-10-05T08:26:06.334Z,71.34
2022-10-05T08:28:39.274Z,70.88
2022-10-05T08:31:20.138Z,71.01
2022-10-05T08:33:59.618Z,69.72
2022-10-05T08:36:53.623Z,68.65
2022-10-05T08:39:25.590Z,68.98
2022-10-05T08:42:44.963Z,68.97
2022-10-05T08:46:10.896Z,69.68
2022-10-05T08:49:17.692Z,69.81
2022-10-05T08:52:23.574Z,69.16
2022-10-05T08:55:34.723Z,69.82
2022-10-05T08:58:37.595Z,69.17
2022-10-05T09:01:19.452Z,69.50
2022-10-05T09:04:23.869Z,67.53
2022-10-05T09:07:18.551Z,67.24
2022-10-05T09:10:32.458Z,65.75
2022-10-05T09:13:34.403Z,65.60
2022-10-05T09:16:33.264Z,63.88
2022-10-05T09:19:43.316Z,63.34
2022-10-05T09:22:17.600Z,64.20
2022-10-05T09:24:57.304Z,62.80
2022-10-05T09:27:38.215Z,61.45
2022-10-05T09:30:37.342Z,61.70
2022-10-05T09:33:53.799Z,62.34
2022-10-05T09:37:21.039Z,61.43
2022-10-05T09:40:50.647Z,61.48
2022-10-05T09:43:45.958Z,60.69
2022-10-05T09:47:17.823Z,60.30
2022-10-05T09:50:18.818Z,59.59
2022-10-05T09:53:05.956Z,58.39
2022-10-05T09:56:11.115Z,59.22
2022-10-05T09:59:09.925Z,59.42
2022-10-05T10:01:57.288Z,59.91
2022-10-05T10:04:36.521Z,58.42
2022-10-05T10:07:57.715Z,58.41
2022-10-05T10:11:04.634Z,57.44
2022-10-05T10:14:11.621Z,56.25
2022-10-05T10:17:02.026Z,56.72
2022-10-05T10:20:06.641Z,56.25
2022-10-05T10:23:24.210Z,56.84
2022-10-05T10:26:50.238Z,55.68
2022-10-05T10:30:04.771Z,54.93
2022-10-05T10:33:40.560Z,55.73
2022-10-05T10:36:17.968Z,56.18
2022-10-05T10:39:03.566Z,54.31
2022-10-05T10:42:13.951Z,54.54
2022-10-05T10:45:13.621Z,54.85
2022-10-05T10:47:52.013Z,53.75
2022-10-05T10:51:08.047Z,53.53
2022-10-05T10:54:21.117Z,53.39
2022-10-05T10:57:03.120Z,53.75
2022-10-05T11:00:26.936Z,54.28
2022-10-05T11:03:56.909Z,53.26
2022-10-05T11:07:22.477Z,53.67
2022-10-05T11:10:41.361Z,54.67
2022-10-05T11:13:41.204Z,53.25
2022-10-05T11:16:33.045Z,53.29
2022-10-05T11:19:52.838Z,54.24
2022-10-05T11:22:52.902Z,53.63
2022-10-05T11:25:53.621Z,54.22
2022-10-05T11:29:05.270Z,53.32
2022-10-05T11:32:22.132Z,53.71
2022-10-05T11:35:20.570Z,54.12
2022-10-05T11:38:12.888Z,54.17
2022-10-05T11:41:28.300Z,54.41
2022-10-05T11:44:43.096Z,54.24
2022-10-05T11:47:23.512Z,54.07
2022-10-05T11:50:06.437Z,53.67
2022-10-05T11:52:44.862Z,53.96
2022-10-05T11:55:27.316Z,53.15
2022-10-05T11:58:00.746Z,52.88
2022-10-05T12:00:37.272Z,52.92
2022-10-05T12:03:37.203Z,53.55
2022-10-05T12:06:23.317Z,53.14
2022-10-05T12:09:05.843Z,53.66
2022-10-05T12:11:58.329Z,54.16
2022-10-05T12:14:42.749Z,54.14
2022-10-05T12:17:24.378Z,53.84
2022-10-05T12:19:57.604Z,54.52
2022-10-05T12:22:32.839Z,54.31
2022-10-05T12:25:19.351Z,54.81
2022-10-05T12:27:53.238Z,53.91
2022-10-05T12:30:48.105Z,54.92
2022-10-05T12:33:22.200Z,54.03
2022-10-05T12:35:56.776Z,54.20
2022-10-05T12:38:31.276Z,55.24
2022-10-05T12:41:08.578Z,54.38
2022-10-05T12:43:49.694Z,52.95
2022-10-05T12:46:32.762Z,52.43
2022-10-05T12:49:41.741Z,52.62
2022-10-05T12:52:29.113Z,52.40
2022-10-05T12:55:06.329Z,51.78
2022-10-05T12:57:41.951Z,51.15
2022-10-05T13:00:13.565Z,50.35
2022-10-05T13:02:48.370Z,50.73
2022-10-05T13:05:28.784Z,51.29
2022-10-05T13:08:19.009Z,50.86
2022-10-05T13:10:50.181Z,53.56
2022-10-05T13:13:35.403Z,55.02
2022-10-05T13:16:17.823Z,56.45
2022-10-05T13:19:01.266Z,56.68
2022-10-05T13:21:55.221Z,56.90
2022-10-05T13:24:30.784Z,57.57
2022-10-05T13:27:08.422Z,57.82
2022-10-05T13:29:41.367Z,57.68
2022-10-05T13:32:20.293Z,57.41
2022-10-05T13:35:10.576Z,58.15
2022-10-05T13:37:47.600Z,58.09
2022-10-05T13:40:29.810Z,57.84
2022-10-05T13:43:06.970Z,58.03
2022-10-05T13:45:45.858Z,58.23
2022-10-05T13:48:44.061Z,58.89
2022-10-05T13:51:19.402Z,58.91
2022-10-05T13:53:55.978Z,59.11
2022-10-05T13:56:30.876Z,59.28
2022-10-05T13:59:11.838Z,58.91
2022-10-05T14:01:45.025Z,58.82
2022-10-05T14:04:20.750Z,58.43
2022-10-05T14:06:51.805Z,59.18
2022-10-05T14:09:32.474Z,58.84
2022-10-05T14:12:22.912Z,58.90
2022-10-05T14:14:53.695Z,58.83
2022-10-05T14:17:40.622Z,59.28
2022-10-05T14:20:25.190Z,59.69
2022-10-05T14:23:00.671Z,59.82
2022-10-05T14:25:30.803Z,59.75
2022-10-05T14:28:05.441Z,59.17
2022-10-05T14:30:34.975Z,59.80
2022-10-05T14:33:16.884Z,59.79
2022-10-05T14:35:50.001Z,59.69
2022-10-05T14:38:23.383Z,60.53
2022-10-05T14:41:15.616Z,60.49
2022-10-05T14:43:56.428Z,60.28
2022-10-05T14:46:28.995Z,59.87
2022-10-05T14:49:17.510Z,59.89
2022-10-05T14:51:45.548Z,59.83
2022-10-05T14:54:41.771Z,60.35
2022-10-05T14:57:25.465Z,55.88
2022-10-05T15:00:14.306Z,52.00
2022-10-05T15:03:00.841Z,50.11
2022-10-05T15:05:36.106Z,48.17
2022-10-05T15:08:45.139Z,48.32
2022-10-05T15:11:31.825Z,47.86
2022-10-05T15:14:02.379Z,47.83
2022-10-05T15:16:34.177Z,46.99
2022-10-05T15:19:23.457Z,46.84
2022-10-05T15:22:23.095Z,46.21
2022-10-05T15:25:02.590Z,45.49
2022-10-05T15:27:49.224Z,46.34
2022-10-05T15:30:19.330Z,45.56
2022-10-05T15:33:07.569Z,45.86
2022-10-05T15:36:11.320Z,45.47
2022-10-05T15:39:00.192Z,45.58
2022-10-05T15:41:55.269Z,46.05
2022-10-05T15:44:41.866Z,46.39
2022-10-05T15:47:18.941Z,46.86
2022-10-05T15:50:00.660Z,46.89
2022-10-05T15:52:37.182Z,47.08
2022-10-05T15:55:32.083Z,46.89
2022-10-05T15:58:31.727Z,47.83
2022-10-05T16:01:08.177Z,48.48
2022-10-05T16:03:50.336Z,48.38
2022-10-05T16:06:55.857Z,49.09
2022-10-05T16:09:45.861Z,49.09
2022-10-05T16:12:35.036Z,48.56
2022-10-05T16:15:26.230Z,48.16
2022-10-05T16:18:32.454Z,49.04
2022-10-05T16:21:14.086Z,49.34
2022-10-05T16:24:00.180Z,49.45
2022-10-05T16:27:00.295Z,49.43
2022-10-05T16:29:40.707Z,48.78
2022-10-05T16:32:15.111Z,49.83
2022-10-05T16:35:01.309Z,50.14
2022-10-05T16:37:41.129Z,49.80
2022-10-05T16:40:21.085Z,49.09
2022-10-05T16:43:02.303Z,49.41
2022-10-05T16:45:52.995Z,49.44
2022-10-05T16:48:27.387Z,49.21
2022-10-05T16:51:19.646Z,48.93
2022-10-05T16:54:02.897Z,49.60
2022-10-05T16:56:42.318Z,50.67
2022-10-05T17:00:15.980Z,51.90
2022-10-05T17:03:11.239Z,52.56
2022-10-05T17:06:02.204Z,53.43
2022-10-05T17:09:09.782Z,53.85
2022-10-05T17:11:55.161Z,54.58
2022-10-05T17:14:38.429Z,54.94
2022-10-05T17:17:33.910Z,54.75
2022-10-05T17:20:24.531Z,55.39
2022-10-05T17:22:59.262Z,55.14
2022-10-05T17:25:39.895Z,54.12
2022-10-05T17:28:24.249Z,54.60
2022-10-05T17:31:17.492Z,54.74
2022-10-05T17:34:27.206Z,55.26
2022-10-05T17:36:59.879Z,55.55
2022-10-05T17:39:57.126Z,56.01
2022-10-05T17:42:48.755Z,54.68
2022-10-05T17:45:54.677Z,54.68
2022-10-05T17:49:06.733Z,54.38
2022-10-05T17:52:38.841Z,54.87
2022-10-05T17:55:45.561Z,54.96
2022-10-05T17:59:03.069Z,55.25
2022-10-05T18:01:36.915Z,54.82
2022-10-05T18:04:42.647Z,54.83
2022-10-05T18:07:24.308Z,55.62
2022-10-05T18:10:17.229Z,55.00
2022-10-05T18:12:51.727Z,54.55
2022-10-05T18:15:50.150Z,54.25
2022-10-05T18:18:58.708Z,54.72
2022-10-05T18:21:37.705Z,54.92
2022-10-05T18:24:55.741Z,54.88
2022-10-05T18:28:24.861Z,55.01
2022-10-05T18:31:09.876Z,54.63
2022-10-05T18:34:21.429Z,55.10
2022-10-05T18:37:27.700Z,55.40
2022-10-05T18:40:21.658Z,55.42
2022-10-05T18:42:58.568Z,55.50
2022-10-05T18:45:38.821Z,55.76
2022-10-05T18:48:22.486Z,55.75
2022-10-05T18:51:00.372Z,55.96
2022-10-05T18:53:41.687Z,56.26
2022-10-05T18:56:25.730Z,56.42
2022-10-05T18:59:11.122Z,56.18
2022-10-05T19:02:08.383Z,55.98
2022-10-05T19:04:53.559Z,56.56
2022-10-05T19:07:33.309Z,57.16
2022-10-05T19:10:15.799Z,57.19
2022-10-05T19:13:06.718Z,57.45
2022-10-05T19:15:45.761Z,57.42
2022-10-05T19:18:52.014Z,57.30
2022-10-05T19:21:34.391Z,57.58
2022-10-05T19:24:42.610Z,57.59
2022-10-05T19:27:22.978Z,57.63
2022-10-05T19:30:22.912Z,57.41
2022-10-05T19:33:25.934Z,57.27
2022-10-05T19:36:15.413Z,57.92
2022-10-05T19:38:59.871Z,57.79
2022-10-05T19:41:42.419Z,57.97
2022-10-05T19:44:21.749Z,57.95
2022-10-05T19:47:01.382Z,57.54
2022-10-05T19:49:49.723Z,57.76
2022-10-05T19:52:31.087Z,57.81
2022-10-05T19:55:12.093Z,57.70
2022-10-05T19:57:48.839Z,57.94
2022-10-05T20:00:24.637Z,57.71
2022-10-05T20:03:08.839Z,58.12
2022-10-05T20:05:37.717Z,58.03
2022-10-05T20:08:15.158Z,58.01
2022-10-05T20:10:43.286Z,57.48
2022-10-05T20:13:21.958Z,57.92
2022-10-05T20:16:26.565Z,57.10
2022-10-05T20:19:12.309Z,57.83
2022-10-05T20:21:45.943Z,57.57
2022-10-05T20:24:18.009Z,57.64
2022-10-05T20:27:16.094Z,57.54
2022-10-05T20:29:47.039Z,57.83
2022-10-05T20:32:17.781Z,57.75
2022-10-05T20:34:48.358Z,57.79
2022-10-05T20:37:19.484Z,57.47
2022-10-05T20:39:50.198Z,57.77
2022-10-05T20:42:19.682Z,58.02
2022-10-05T20:44:52.905Z,57.78
2022-10-05T20:47:24.018Z,57.68
2022-10-05T20:49:53.292Z,57.73
2022-10-05T20:52:22.373Z,57.59
2022-10-05T20:54:58.763Z,57.73
2022-10-05T20:57:27.226Z,57.80
2022-10-05T20:59:55.254Z,58.12
2022-10-05T21:02:23.286Z,57.65
2022-10-05T21:04:51.588Z,58.33
2022-10-05T21:07:20.848Z,58.15
2022-10-05T21:09:48.916Z,58.14
2022-10-05T21:12:18.299Z,58.00
2022-10-05T21:14:47.372Z,58.54
2022-10-05T21:17:15.773Z,58.12
2022-10-05T21:19:43.774Z,58.05
2022-10-05T21:22:11.825Z,58.51
2022-10-05T21:24:41.850Z,58.30
2022-10-05T21:27:10.536Z,58.14
2022-10-05T21:29:41.186Z,58.15
2022-10-05T21:32:11.564Z,58.67
2022-10-05T21:34:40.682Z,58.74
2022-10-05T21:37:09.225Z,58.48
2022-10-05T21:39:37.295Z,57.97
2022-10-05T21:42:05.567Z,58.15
2022-10-05T21:44:33.624Z,58.14
2022-10-05T21:47:04.205Z,58.35
2022-10-05T21:49:32.522Z,58.22
2022-10-05T21:52:02.339Z,57.99
2022-10-05T21:54:30.851Z,58.46
2022-10-05T21:57:00.011Z,58.22
2022-10-05T21:59:32.438Z,57.93
2022-10-05T22:02:02.262Z,58.14
2022-10-05T22:04:30.374Z,57.89
2022-10-05T22:06:58.598Z,58.10
2022-10-05T22:09:26.922Z,58.02
2022-10-05T22:11:54.999Z,58.05
2022-10-05T22:14:23.895Z,58.26
2022-10-05T22:16:53.971Z,58.63
2022-10-05T22:19:23.861Z,58.38
2022-10-05T22:21:51.867Z,58.15
2022-10-05T22:24:22.788Z,58.18
2022-10-05T22:26:52.394Z,58.05
2022-10-05T22:29:21.183Z,58.21
2022-10-05T22:31:49.544Z,58.42
2022-10-05T22:34:18.826Z,58.44
2022-10-05T22:36:48.674Z,58.19
2022-10-05T22:39:17.751Z,58.23
2022-10-05T22:41:46.322Z,58.35
2022-10-05T22:44:14.371Z,57.90
2022-10-05T22:46:42.410Z,58.05
2022-10-05T22:49:10.552Z,58.02
2022-10-05T22:51:38.599Z,58.16
2022-10-05T22:54:08.131Z,57.80
2022-10-05T22:56:36.194Z,57.86
2022-10-05T22:59:04.255Z,57.75
2022-10-05T23:01:32.425Z,57.65
2022-10-05T23:04:00.500Z,57.75
2022-10-05T23:06:28.608Z,57.71
2022-10-05T23:08:57.348Z,57.65
2022-10-05T23:11:30.067Z,57.50
2022-10-05T23:13:59.804Z,58.19
2022-10-05T23:16:29.712Z,58.11
2022-10-05T23:18:58.305Z,58.29
2022-10-05T23:21:29.449Z,58.05
2022-10-05T23:23:57.476Z,58.05
2022-10-05T23:26:27.248Z,58.33
2022-10-05T23:28:55.313Z,58.37
2022-10-05T23:31:27.082Z,58.72
2022-10-05T23:33:55.541Z,57.99
2022-10-05T23:36:25.814Z,57.60
2022-10-05T23:38:54.351Z,57.82
2022-10-05T23:41:22.789Z,57.43
2022-10-05T23:43:54.630Z,57.69
2022-10-05T23:46:22.971Z,57.66
2022-10-05T23:48:51.363Z,57.73
2022-10-05T23:51:19.627Z,57.89
2022-10-05T23:53:47.631Z,57.95
2022-10-05T23:56:15.723Z,57.71
2022-10-05T23:58:44.888Z,58.11
